Time;durP1;ratioP1;P1;durP2;ratioP2;P2;SDS_P1;SDS_P2;PMS_P1;PMS_P2;Temp;Humidity;BMP_temperature;BMP_pressure;BME280_temperature;BME280_humidity;BME280_pressure;Samples;Min_cycle;Max_cycle;Signal;HPM_P1;HPM_P2
2024/02/24 00:02:07;;;;;;;1.60;1.50;;;16.60;55.40;;;;;;5069942;28;20442;-81
2024/02/24 00:04:37;;;;;;;1.73;1.63;;;16.60;55.50;;;;;;5077445;28;20444;-81
2024/02/24 00:07:05;;;;;;;2.97;1.33;;;16.60;55.50;;;;;;5090279;28;20484;-82
2024/02/24 00:09:33;;;;;;;1.80;1.70;;;16.50;55.60;;;;;;5073007;28;20516;-80
2024/02/24 00:12:04;;;;;;;1.80;1.70;;;16.50;55.70;;;;;;5061418;28;20461;-81
2024/02/24 00:14:33;;;;;;;3.53;1.93;;;16.50;55.80;;;;;;5079436;28;20445;-80
2024/02/24 00:17:01;;;;;;;2.20;1.73;;;16.50;55.80;;;;;;5079117;28;20442;-82
2024/02/24 00:19:29;;;;;;;1.70;1.53;;;16.50;55.80;;;;;;5077081;28;20442;-81
2024/02/24 00:22:02;;;;;;;4.10;1.70;;;16.50;55.80;;;;;;5062669;28;20433;-81
2024/02/24 00:24:30;;;;;;;1.60;1.47;;;16.50;56.00;;;;;;5079007;28;20890;-82
2024/02/24 00:26:58;;;;;;;1.87;1.67;;;16.50;55.90;;;;;;5076951;28;20505;-80
2024/02/24 00:29:27;;;;;;;2.20;2.00;;;16.50;56.10;;;;;;5072875;28;20500;-80
2024/02/24 00:31:55;;;;;;;1.93;1.70;;;16.50;56.20;;;;;;5076222;28;20465;-81
2024/02/24 00:34:23;;;;;;;3.33;2.07;;;16.50;56.30;;;;;;5064983;28;20484;-82
2024/02/24 00:36:51;;;;;;;2.10;2.00;;;16.50;56.40;;;;;;5074435;28;20453;-82
2024/02/24 00:39:21;;;;;;;3.23;1.80;;;16.40;56.40;;;;;;5058395;28;20482;-82
2024/02/24 00:41:50;;;;;;;2.17;2.00;;;16.40;56.60;;;;;;5076881;28;20803;-80
2024/02/24 00:44:18;;;;;;;2.10;2.00;;;16.40;56.70;;;;;;5076079;28;20542;-81
2024/02/24 00:46:47;;;;;;;5.80;1.83;;;16.40;56.60;;;;;;5070703;28;20541;-80
2024/02/24 00:49:21;;;;;;;2.23;2.03;;;16.40;56.70;;;;;;5058001;28;20545;-81
2024/02/24 00:51:49;;;;;;;1.87;1.77;;;16.40;56.70;;;;;;5077572;22;20483;-78
2024/02/24 00:54:16;;;;;;;3.00;2.47;;;16.40;56.80;;;;;;5029623;28;20438;-78
2024/02/24 00:56:46;;;;;;;2.43;1.80;;;16.40;56.80;;;;;;5031954;28;20439;-77
2024/02/24 00:59:14;;;;;;;2.00;1.90;;;16.30;56.80;;;;;;5032317;28;20460;-78
2024/02/24 01:01:42;;;;;;;4.70;2.03;;;16.30;56.90;;;;;;5039134;28;20462;-77
2024/02/24 01:04:10;;;;;;;2.10;1.90;;;16.30;56.90;;;;;;5051874;28;20478;-77
2024/02/24 01:06:38;;;;;;;2.40;1.93;;;16.30;57.00;;;;;;5052173;28;20454;-77
2024/02/24 01:09:06;;;;;;;13.60;5.10;;;16.30;57.00;;;;;;5052448;28;20517;-78
2024/02/24 01:11:34;;;;;;;7.17;5.37;;;16.30;57.10;;;;;;5052472;28;20541;-78
2024/02/24 01:14:04;;;;;;;7.80;5.13;;;16.20;57.00;;;;;;5052524;28;20431;-77
2024/02/24 01:16:32;;;;;;;13.00;7.73;;;16.30;57.30;;;;;;5051973;28;20447;-77
2024/02/24 01:19:01;;;;;;;12.83;8.40;;;16.20;57.20;;;;;;5052140;28;20446;-78
2024/02/24 01:21:29;;;;;;;10.47;7.20;;;16.20;57.20;;;;;;5052742;28;20478;-78
2024/02/24 01:23:57;;;;;;;13.80;8.47;;;16.20;57.00;;;;;;5054015;28;20446;-78
2024/02/24 01:26:25;;;;;;;13.00;8.40;;;16.20;57.30;;;;;;5043798;28;20545;-77
2024/02/24 01:28:53;;;;;;;17.77;9.87;;;16.10;57.40;;;;;;5043564;28;20438;-76
2024/02/24 01:31:23;;;;;;;16.27;10.37;;;16.20;57.40;;;;;;5052291;28;20470;-78
2024/02/24 01:33:51;;;;;;;17.43;10.13;;;16.10;57.40;;;;;;5051625;28;20550;-77
2024/02/24 01:36:19;;;;;;;20.03;11.70;;;16.10;57.40;;;;;;5043141;28;20483;-77
2024/02/24 01:38:47;;;;;;;18.53;11.97;;;16.10;57.40;;;;;;5051845;28;20504;-78
2024/02/24 01:41:14;;;;;;;19.90;11.50;;;16.10;57.40;;;;;;5051998;28;20435;-78
2024/02/24 01:43:43;;;;;;;17.83;11.50;;;16.10;57.50;;;;;;5051915;28;20423;-77
2024/02/24 01:46:13;;;;;;;18.07;11.50;;;16.10;57.40;;;;;;5052160;28;20473;-77
2024/02/24 01:48:42;;;;;;;17.00;11.13;;;16.10;57.60;;;;;;5051786;28;20537;-77
2024/02/24 01:51:10;;;;;;;21.03;12.30;;;16.10;57.60;;;;;;5055321;28;20814;-77
2024/02/24 01:53:38;;;;;;;21.13;12.83;;;16.10;57.70;;;;;;5054974;28;20466;-78
2024/02/24 01:56:07;;;;;;;18.83;11.83;;;16.10;57.40;;;;;;5051157;28;20463;-77
2024/02/24 01:58:36;;;;;;;23.30;12.97;;;16.10;57.60;;;;;;5052012;28;20999;-77
2024/02/24 02:01:04;;;;;;;21.80;13.13;;;16.10;57.50;;;;;;5055471;28;20445;-78
2024/02/24 02:03:32;;;;;;;20.87;11.90;;;16.00;57.50;;;;;;5047033;28;20456;-77
2024/02/24 02:06:01;;;;;;;18.47;11.60;;;16.00;57.60;;;;;;5040157;28;20464;-78
2024/02/24 02:08:29;;;;;;;19.87;12.30;;;16.00;57.60;;;;;;5050578;28;20517;-78
2024/02/24 02:10:57;;;;;;;18.97;12.23;;;16.00;57.60;;;;;;5054939;28;20520;-77
2024/02/24 02:13:26;;;;;;;20.53;11.97;;;16.00;57.60;;;;;;5055092;28;21114;-77
2024/02/24 02:15:57;;;;;;;19.67;11.70;;;16.00;57.60;;;;;;5054931;28;20439;-77
2024/02/24 02:18:25;;;;;;;19.40;12.53;;;16.00;57.80;;;;;;5055769;28;20426;-77
2024/02/24 02:20:53;;;;;;;21.10;11.67;;;15.90;57.50;;;;;;5071414;28;20446;-79
2024/02/24 02:23:24;;;;;;;21.83;11.90;;;15.90;57.60;;;;;;5078110;28;20526;-79
2024/02/24 02:25:52;;;;;;;19.40;11.33;;;15.90;57.70;;;;;;5076317;28;20419;-78
2024/02/24 02:28:20;;;;;;;18.53;11.23;;;15.90;57.60;;;;;;5059500;28;20468;-77
2024/02/24 02:30:47;;;;;;;19.03;11.30;;;15.90;57.60;;;;;;5057719;28;20534;-78
2024/02/24 02:33:16;;;;;;;16.73;11.03;;;15.90;57.70;;;;;;5049543;28;20565;-77
2024/02/24 02:35:44;;;;;;;18.80;11.13;;;15.90;57.70;;;;;;5038063;28;20443;-77
2024/02/24 02:38:12;;;;;;;15.57;10.43;;;15.80;57.80;;;;;;5053741;28;20458;-77
2024/02/24 02:40:42;;;;;;;16.60;10.10;;;15.80;57.80;;;;;;5054805;28;20451;-78
2024/02/24 02:43:10;;;;;;;16.23;9.93;;;15.80;57.80;;;;;;5054289;28;20482;-78
2024/02/24 02:45:38;;;;;;;16.17;9.60;;;15.80;57.60;;;;;;5055367;28;20443;-78
2024/02/24 02:48:07;;;;;;;16.43;10.07;;;15.80;57.80;;;;;;5046584;28;20458;-78
2024/02/24 02:50:35;;;;;;;14.67;8.77;;;15.80;57.70;;;;;;5054809;28;20442;-78
2024/02/24 02:53:03;;;;;;;14.10;9.07;;;15.80;57.80;;;;;;5047561;28;20585;-77
2024/02/24 02:55:31;;;;;;;14.57;8.97;;;15.80;57.80;;;;;;5048609;28;20450;-77
2024/02/24 02:58:00;;;;;;;15.27;9.00;;;15.80;57.80;;;;;;5047465;28;20827;-78
2024/02/24 03:00:29;;;;;;;13.83;9.00;;;15.80;57.70;;;;;;5054143;28;20430;-77
2024/02/24 03:02:57;;;;;;;11.97;8.33;;;15.80;57.80;;;;;;5053620;28;20486;-77
2024/02/24 03:05:26;;;;;;;12.77;8.43;;;15.80;57.70;;;;;;5054423;28;20454;-76
2024/02/24 03:07:54;;;;;;;12.53;8.27;;;15.80;57.50;;;;;;5053902;28;20430;-78
2024/02/24 03:10:22;;;;;;;13.43;8.03;;;15.70;57.60;;;;;;5054439;28;20463;-76
2024/02/24 03:12:50;;;;;;;13.93;8.03;;;15.70;57.70;;;;;;5053888;28;20514;-78
2024/02/24 03:15:20;;;;;;;11.93;8.00;;;15.70;57.70;;;;;;5053990;28;20945;-78
2024/02/24 03:17:48;;;;;;;13.80;8.20;;;15.70;57.70;;;;;;5053646;28;20451;-78
2024/02/24 03:20:16;;;;;;;13.77;7.27;;;15.70;57.80;;;;;;5054787;28;20470;-77
2024/02/24 03:22:44;;;;;;;11.67;7.60;;;15.70;57.90;;;;;;5052023;28;20825;-77
2024/02/24 03:25:12;;;;;;;10.90;7.47;;;15.70;57.80;;;;;;5053767;28;20471;-77
2024/02/24 03:27:40;;;;;;;10.07;6.97;;;15.70;57.80;;;;;;5053932;28;20505;-77
2024/02/24 03:30:10;;;;;;;9.40;6.87;;;15.70;57.80;;;;;;5053599;28;20474;-77
2024/02/24 03:32:40;;;;;;;8.30;6.40;;;15.60;58.00;;;;;;5047351;28;20475;-78
2024/02/24 03:35:09;;;;;;;9.63;6.80;;;15.70;57.90;;;;;;5054543;28;20479;-77
2024/02/24 03:37:37;;;;;;;10.43;6.30;;;15.70;57.90;;;;;;5056803;28;20451;-78
2024/02/24 03:40:06;;;;;;;9.70;6.93;;;15.60;57.80;;;;;;5054906;28;20447;-77
2024/02/24 03:42:35;;;;;;;8.50;5.97;;;15.70;58.00;;;;;;5057300;28;20497;-78
2024/02/24 03:45:03;;;;;;;8.30;5.80;;;15.60;57.90;;;;;;5055271;28;20489;-77
2024/02/24 03:47:31;;;;;;;7.33;5.70;;;15.70;57.70;;;;;;5052635;28;20506;-79
2024/02/24 03:50:01;;;;;;;7.13;5.37;;;15.60;57.90;;;;;;5040815;28;20443;-78
2024/02/24 03:52:29;;;;;;;10.00;6.43;;;15.60;57.70;;;;;;5048097;28;20560;-78
2024/02/24 03:54:56;;;;;;;7.93;5.80;;;15.60;58.00;;;;;;5055208;28;20466;-79
2024/02/24 03:57:24;;;;;;;7.80;6.17;;;15.60;58.10;;;;;;5054695;28;20937;-79
2024/02/24 03:59:52;;;;;;;6.80;5.00;;;15.60;58.00;;;;;;5054388;28;20501;-79
2024/02/24 04:02:20;;;;;;;12.03;6.40;;;15.60;58.00;;;;;;5047853;28;20465;-79
2024/02/24 04:04:50;;;;;;;7.23;5.50;;;15.60;58.00;;;;;;5048601;28;20443;-79
2024/02/24 04:07:19;;;;;;;6.90;5.37;;;15.60;57.90;;;;;;5047210;28;20443;-79
2024/02/24 04:09:47;;;;;;;8.47;4.70;;;15.60;58.00;;;;;;5053477;28;20477;-79
2024/02/24 04:12:15;;;;;;;8.67;5.80;;;15.60;58.00;;;;;;5049683;28;20463;-78
2024/02/24 04:14:43;;;;;;;7.30;5.20;;;15.60;58.00;;;;;;5033943;28;20503;-79
2024/02/24 04:17:11;;;;;;;7.30;5.23;;;15.60;58.10;;;;;;5044892;28;20449;-79
2024/02/24 04:19:39;;;;;;;8.37;4.83;;;15.60;58.10;;;;;;5053840;28;20446;-79
2024/02/24 04:22:07;;;;;;;8.53;5.20;;;15.60;58.20;;;;;;5045389;28;20489;-78
2024/02/24 04:24:36;;;;;;;7.17;4.93;;;15.60;58.20;;;;;;5053842;28;20477;-80
2024/02/24 04:27:05;;;;;;;5.20;4.30;;;15.60;58.10;;;;;;5053418;28;20545;-78
2024/02/24 04:29:33;;;;;;;4.73;4.07;;;15.60;58.10;;;;;;5052516;28;20481;-78
2024/02/24 04:32:01;;;;;;;4.90;4.03;;;15.60;58.20;;;;;;5036189;28;20541;-77
2024/02/24 04:34:29;;;;;;;5.93;4.07;;;15.60;58.30;;;;;;5046857;28;20571;-77
2024/02/24 04:36:58;;;;;;;4.07;3.67;;;15.60;58.10;;;;;;5041905;28;20460;-77
2024/02/24 04:39:26;;;;;;;5.90;4.30;;;15.60;58.50;;;;;;5051886;28;20510;-78
2024/02/24 04:41:55;;;;;;;5.40;4.37;;;15.60;58.50;;;;;;5052544;28;20493;-77
2024/02/24 04:44:23;;;;;;;4.87;4.20;;;15.60;58.40;;;;;;5050308;28;20459;-78
2024/02/24 04:46:51;;;;;;;5.50;4.03;;;15.60;58.50;;;;;;5049474;28;20447;-79
2024/02/24 04:49:20;;;;;;;7.67;4.27;;;15.60;58.30;;;;;;5052589;28;20489;-78
2024/02/24 04:51:48;;;;;;;4.20;3.73;;;15.60;58.50;;;;;;5052970;28;20478;-77
2024/02/24 04:54:17;;;;;;;4.80;4.20;;;15.60;58.60;;;;;;5032909;28;20525;-78
2024/02/24 04:56:45;;;;;;;4.00;3.60;;;15.60;58.60;;;;;;5032986;28;20447;-77
2024/02/24 04:59:16;;;;;;;4.20;3.80;;;15.60;58.60;;;;;;5043493;28;20462;-79
2024/02/24 05:01:44;;;;;;;4.30;3.47;;;15.60;58.70;;;;;;5049665;28;20466;-78
2024/02/24 05:04:13;;;;;;;5.87;4.03;;;15.60;58.70;;;;;;5054402;28;20440;-79
2024/02/24 05:06:41;;;;;;;4.93;3.73;;;15.60;58.80;;;;;;5045723;28;20438;-79
2024/02/24 05:09:11;;;;;;;3.67;3.37;;;15.60;58.80;;;;;;5045737;28;20498;-79
2024/02/24 05:11:40;;;;;;;4.10;3.30;;;15.60;58.80;;;;;;5045277;28;20903;-76
2024/02/24 05:14:08;;;;;;;9.30;3.73;;;15.60;58.80;;;;;;5052233;28;20466;-77
2024/02/24 05:16:41;;;;;;;3.67;3.30;;;15.50;58.70;;;;;;5052127;28;20439;-76
2024/02/24 05:19:09;;;;;;;5.33;3.67;;;15.50;58.80;;;;;;5051726;28;20450;-76
2024/02/24 05:21:38;;;;;;;4.10;3.60;;;15.50;58.80;;;;;;5052051;28;20474;-78
2024/02/24 05:24:06;;;;;;;5.00;3.23;;;15.50;58.80;;;;;;5051807;28;20462;-77
2024/02/24 05:26:34;;;;;;;3.40;2.80;;;15.60;58.80;;;;;;5058068;28;20473;-80
2024/02/24 05:29:02;;;;;;;4.70;3.10;;;15.60;58.80;;;;;;5062380;28;20461;-79
2024/02/24 05:31:30;;;;;;;5.13;3.20;;;15.50;58.80;;;;;;5066315;28;20481;-77
2024/02/24 05:34:00;;;;;;;3.63;3.20;;;15.50;58.80;;;;;;5050345;28;20446;-79
2024/02/24 05:36:28;;;;;;;4.63;3.13;;;15.50;58.70;;;;;;5066495;28;20513;-79
2024/02/24 05:38:58;;;;;;;3.33;3.03;;;15.50;58.90;;;;;;5062198;28;20481;-79
2024/02/24 05:41:26;;;;;;;3.50;3.17;;;15.50;58.90;;;;;;5039591;28;20455;-81
2024/02/24 05:43:54;;;;;;;3.43;2.67;;;15.50;58.90;;;;;;5069852;28;20454;-79
2024/02/24 05:46:23;;;;;;;3.20;2.90;;;15.50;58.80;;;;;;5054646;28;20434;-78
2024/02/24 05:48:51;;;;;;;3.27;2.97;;;15.50;58.90;;;;;;5074275;28;20437;-79
2024/02/24 05:51:21;;;;;;;5.00;2.77;;;15.50;58.90;;;;;;5076102;28;20537;-79
2024/02/24 05:53:49;;;;;;;4.10;3.07;;;15.50;59.00;;;;;;5068309;28;20925;-77
2024/02/24 05:56:17;;;;;;;3.87;3.20;;;15.50;58.80;;;;;;5057871;28;20476;-75
2024/02/24 05:58:45;;;;;;;3.97;2.87;;;15.50;59.10;;;;;;5057940;28;20500;-78
2024/02/24 06:01:14;;;;;;;3.03;2.70;;;15.50;59.20;;;;;;5054358;28;20478;-78
2024/02/24 06:03:42;;;;;;;3.90;3.27;;;15.50;59.10;;;;;;5053007;28;20434;-78
2024/02/24 06:06:10;;;;;;;2.90;2.70;;;15.50;59.20;;;;;;5055695;28;21011;-78
2024/02/24 06:08:40;;;;;;;2.90;2.70;;;15.50;59.00;;;;;;5056223;28;20480;-78
2024/02/24 06:11:08;;;;;;;2.43;2.23;;;15.50;59.10;;;;;;5056278;28;20438;-78
2024/02/24 06:13:36;;;;;;;2.70;2.50;;;15.50;59.20;;;;;;5055449;28;20500;-76
2024/02/24 06:16:04;;;;;;;4.40;2.63;;;15.50;59.20;;;;;;5047621;28;20526;-78
2024/02/24 06:18:32;;;;;;;3.03;2.73;;;15.50;59.30;;;;;;5054922;28;20470;-79
2024/02/24 06:21:00;;;;;;;3.07;2.70;;;15.50;59.30;;;;;;5055475;28;20442;-78
2024/02/24 06:23:29;;;;;;;3.23;2.80;;;15.50;59.30;;;;;;5054157;28;20537;-78
2024/02/24 06:25:59;;;;;;;2.90;2.20;;;15.50;59.30;;;;;;5054031;28;20512;-77
2024/02/24 06:28:27;;;;;;;3.67;2.80;;;15.50;59.30;;;;;;5051539;28;20564;-78
2024/02/24 06:30:55;;;;;;;2.57;2.33;;;15.50;59.40;;;;;;5055076;28;20434;-78
2024/02/24 06:33:22;;;;;;;2.63;2.30;;;15.50;59.30;;;;;;5055106;28;20542;-77
2024/02/24 06:35:50;;;;;;;3.47;2.20;;;15.50;59.40;;;;;;5054824;28;20466;-77
2024/02/24 06:38:18;;;;;;;3.17;2.77;;;15.50;59.40;;;;;;5054838;28;20439;-77
2024/02/24 06:40:46;;;;;;;2.60;2.40;;;15.60;59.50;;;;;;5054356;28;20442;-77
2024/02/24 06:43:16;;;;;;;2.27;2.17;;;15.60;59.60;;;;;;5050262;28;20553;-77
2024/02/24 06:45:44;;;;;;;2.97;2.67;;;15.60;59.60;;;;;;5048939;28;20466;-76
2024/02/24 06:48:12;;;;;;;2.70;2.50;;;15.60;59.50;;;;;;5054230;28;20479;-77
2024/02/24 06:50:40;;;;;;;2.30;2.10;;;15.60;59.60;;;;;;5050107;28;20473;-78
2024/02/24 06:53:08;;;;;;;2.37;2.17;;;15.60;59.50;;;;;;5076276;22;20487;-79
2024/02/24 06:55:36;;;;;;;2.70;2.40;;;15.60;59.60;;;;;;5057676;28;20453;-81
2024/02/24 06:58:04;;;;;;;2.27;2.07;;;15.60;59.60;;;;;;5048767;28;20443;-81
2024/02/24 07:00:34;;;;;;;2.53;1.90;;;15.60;59.60;;;;;;5056259;28;20442;-81
2024/02/24 07:03:01;;;;;;;2.30;2.10;;;15.70;59.70;;;;;;5063015;28;20468;-81
2024/02/24 07:05:31;;;;;;;2.30;2.10;;;15.60;59.50;;;;;;5071349;28;20469;-81
2024/02/24 07:07:59;;;;;;;2.30;2.07;;;15.70;59.70;;;;;;5070076;28;20453;-80
2024/02/24 07:10:28;;;;;;;2.50;2.30;;;15.70;59.70;;;;;;5074341;28;20509;-81
2024/02/24 07:12:56;;;;;;;2.20;1.93;;;15.70;59.60;;;;;;5071643;28;20477;-81
2024/02/24 07:15:25;;;;;;;1.90;1.80;;;15.70;59.70;;;;;;5075062;28;20466;-81
2024/02/24 07:17:54;;;;;;;2.80;2.20;;;15.70;59.60;;;;;;5072877;28;20468;-81
2024/02/24 07:20:23;;;;;;;2.10;2.00;;;15.70;59.60;;;;;;5073891;28;20430;-81
2024/02/24 07:22:51;;;;;;;2.00;1.90;;;15.70;59.60;;;;;;5075066;28;20484;-81
2024/02/24 07:25:18;;;;;;;2.13;1.93;;;15.70;59.60;;;;;;5077691;28;20500;-81
2024/02/24 07:27:46;;;;;;;2.23;2.03;;;15.80;59.70;;;;;;5070217;28;20459;-81
2024/02/24 07:30:14;;;;;;;1.77;1.60;;;15.80;59.70;;;;;;5076841;28;20968;-81
2024/02/24 07:32:42;;;;;;;2.47;2.10;;;15.80;59.60;;;;;;5069387;28;20470;-81
2024/02/24 07:35:16;;;;;;;1.87;1.77;;;15.80;59.60;;;;;;5066847;28;20445;-80
2024/02/24 07:37:44;;;;;;;3.13;2.03;;;15.80;59.50;;;;;;5057795;28;20825;-82
2024/02/24 07:40:13;;;;;;;2.07;1.93;;;15.80;59.50;;;;;;5069279;28;20476;-81
2024/02/24 07:42:41;;;;;;;2.63;2.37;;;15.80;59.40;;;;;;5072028;28;20469;-82
2024/02/24 07:45:09;;;;;;;2.20;1.97;;;15.80;59.30;;;;;;5066271;28;20453;-81
2024/02/24 07:47:37;;;;;;;2.20;2.10;;;15.80;59.50;;;;;;5083084;28;20487;-79
2024/02/24 07:50:09;;;;;;;3.53;1.97;;;15.80;59.40;;;;;;5057886;28;20497;-81
2024/02/24 07:52:39;;;;;;;2.40;1.97;;;15.80;59.20;;;;;;5067692;28;20477;-79
2024/02/24 07:55:06;;;;;;;2.17;1.90;;;15.90;59.30;;;;;;5062612;28;20492;-80
2024/02/24 07:57:34;;;;;;;3.97;2.30;;;15.90;59.20;;;;;;5064127;28;20438;-81
2024/02/24 08:00:03;;;;;;;3.27;2.10;;;15.90;59.00;;;;;;5067903;28;20458;-79
2024/02/24 08:02:31;;;;;;;2.63;1.60;;;15.90;59.20;;;;;;5079400;28;20480;-79
2024/02/24 08:05:00;;;;;;;2.00;1.77;;;15.90;59.00;;;;;;5082310;28;20453;-79
2024/02/24 08:07:28;;;;;;;2.30;2.10;;;15.90;59.10;;;;;;5076563;28;20469;-79
2024/02/24 08:09:58;;;;;;;2.20;2.00;;;16.00;59.00;;;;;;5076223;28;20537;-80
2024/02/24 08:12:26;;;;;;;1.80;1.70;;;15.90;59.00;;;;;;5063579;28;20497;-80
2024/02/24 08:14:54;;;;;;;2.07;1.77;;;16.00;59.00;;;;;;5073241;28;20499;-80
2024/02/24 08:17:22;;;;;;;3.03;2.20;;;16.00;59.00;;;;;;5062870;28;20446;-80
2024/02/24 08:19:50;;;;;;;1.93;1.73;;;16.00;59.00;;;;;;5071175;28;20464;-80
2024/02/24 08:22:18;;;;;;;2.00;1.60;;;16.00;59.00;;;;;;5075084;28;20464;-80
2024/02/24 08:24:46;;;;;;;2.30;1.53;;;16.00;58.80;;;;;;5071116;28;20453;-79
2024/02/24 08:27:16;;;;;;;2.47;2.17;;;16.10;58.80;;;;;;5058985;28;20537;-79
2024/02/24 08:29:44;;;;;;;2.60;1.97;;;16.00;58.70;;;;;;5071247;28;20448;-80
2024/02/24 08:32:12;;;;;;;1.50;1.40;;;16.10;58.80;;;;;;5069232;28;20474;-80
2024/02/24 08:34:40;;;;;;;4.30;1.80;;;16.10;58.70;;;;;;5065304;28;20442;-80
2024/02/24 08:37:08;;;;;;;1.73;1.63;;;16.00;58.50;;;;;;5070200;28;20437;-80
2024/02/24 08:39:36;;;;;;;2.80;1.80;;;16.10;58.60;;;;;;5075457;28;20505;-79
2024/02/24 08:42:05;;;;;;;1.77;1.67;;;16.00;58.50;;;;;;5074001;28;20469;-80
2024/02/24 08:44:35;;;;;;;1.60;1.40;;;16.00;58.60;;;;;;5067088;28;20453;-80
2024/02/24 08:47:03;;;;;;;1.80;1.70;;;16.00;58.50;;;;;;5068925;28;20470;-80
2024/02/24 08:49:31;;;;;;;2.23;1.50;;;16.00;58.50;;;;;;5083400;28;20489;-80
2024/02/24 08:52:00;;;;;;;2.20;1.80;;;16.00;58.50;;;;;;5073112;28;20479;-79
2024/02/24 08:54:27;;;;;;;2.00;1.87;;;16.10;58.80;;;;;;5073396;28;20475;-79
2024/02/24 08:56:55;;;;;;;1.67;1.57;;;16.10;58.50;;;;;;5079219;28;20473;-79
2024/02/24 08:59:23;;;;;;;1.80;1.70;;;16.20;58.50;;;;;;5075674;28;20438;-79
2024/02/24 09:01:54;;;;;;;1.57;1.47;;;16.20;58.40;;;;;;5073109;28;20437;-80
2024/02/24 09:04:21;;;;;;;1.47;1.37;;;16.20;58.40;;;;;;5086321;28;20441;-80
2024/02/24 09:06:49;;;;;;;2.00;1.57;;;16.20;58.30;;;;;;5079889;28;20470;-81
2024/02/24 09:09:18;;;;;;;2.03;1.60;;;16.10;58.40;;;;;;5078747;28;20441;-81
2024/02/24 09:11:47;;;;;;;2.00;1.60;;;16.20;58.50;;;;;;5077354;28;20437;-81
2024/02/24 09:14:15;;;;;;;2.13;1.67;;;16.30;58.70;;;;;;5080076;28;20499;-82
2024/02/24 09:16:43;;;;;;;2.23;1.77;;;16.40;58.70;;;;;;5072111;28;20894;-81
2024/02/24 09:19:12;;;;;;;1.80;1.70;;;16.60;58.70;;;;;;5080671;28;20430;-81
2024/02/24 09:21:44;;;;;;;2.87;1.63;;;16.70;58.50;;;;;;5077377;28;20441;-81
2024/02/24 09:24:12;;;;;;;3.37;1.23;;;16.80;58.40;;;;;;5078001;28;20469;-82
2024/02/24 09:26:40;;;;;;;1.60;1.50;;;16.80;58.20;;;;;;5071604;28;20465;-82
2024/02/24 09:29:09;;;;;;;2.00;1.40;;;16.90;58.00;;;;;;5078460;28;20508;-82
2024/02/24 09:31:37;;;;;;;2.43;1.53;;;16.80;57.90;;;;;;5075186;28;20445;-82
2024/02/24 09:34:05;;;;;;;1.60;1.50;;;16.90;58.10;;;;;;5074640;28;20484;-82
2024/02/24 09:36:40;;;;;;;1.93;1.60;;;17.00;58.20;;;;;;5078603;28;20491;-80
2024/02/24 09:39:08;;;;;;;1.60;1.50;;;17.00;58.00;;;;;;5078814;28;20545;-82
2024/02/24 09:41:37;;;;;;;1.40;1.30;;;17.00;57.90;;;;;;5078988;28;20471;-82
2024/02/24 09:44:05;;;;;;;2.50;1.80;;;17.00;58.10;;;;;;5080550;28;20461;-81
2024/02/24 09:46:34;;;;;;;1.57;1.47;;;17.00;58.20;;;;;;5080979;28;20465;-79
2024/02/24 09:49:04;;;;;;;1.37;1.23;;;17.00;58.20;;;;;;5079057;28;20544;-82
2024/02/24 09:51:34;;;;;;;1.60;1.50;;;17.00;58.20;;;;;;5079064;28;20445;-82
2024/02/24 09:54:05;;;;;;;1.50;1.40;;;16.90;58.10;;;;;;5077285;28;20527;-81
2024/02/24 09:56:33;;;;;;;1.43;1.33;;;17.00;58.30;;;;;;5073863;28;20504;-80
2024/02/24 09:59:01;;;;;;;1.80;1.70;;;17.00;58.80;;;;;;5079851;28;20464;-81
2024/02/24 10:01:29;;;;;;;1.73;1.37;;;16.90;58.20;;;;;;5080376;28;20491;-81
2024/02/24 10:03:58;;;;;;;1.83;1.63;;;16.90;58.20;;;;;;5080051;28;20465;-80
2024/02/24 10:06:26;;;;;;;1.63;1.53;;;16.90;58.20;;;;;;5080283;28;20433;-80
2024/02/24 10:08:54;;;;;;;2.27;1.37;;;16.90;58.30;;;;;;5071168;28;20445;-81
2024/02/24 10:11:23;;;;;;;1.63;1.40;;;16.90;59.00;;;;;;5083759;28;20488;-81
2024/02/24 10:13:51;;;;;;;1.67;1.57;;;16.90;58.50;;;;;;5084719;28;20452;-81
2024/02/24 10:16:20;;;;;;;1.47;1.47;;;17.00;58.50;;;;;;5095894;28;20434;-81
2024/02/24 10:18:48;;;;;;;1.83;1.73;;;17.00;59.00;;;;;;5093105;28;20430;-80
2024/02/24 10:21:16;;;;;;;1.70;1.60;;;17.00;58.30;;;;;;5080014;28;20441;-78
2024/02/24 10:23:44;;;;;;;1.90;1.80;;;17.10;58.30;;;;;;5079889;28;20453;-82
2024/02/24 10:26:12;;;;;;;4.00;2.27;;;17.10;58.30;;;;;;5079587;28;20434;-81
2024/02/24 10:28:42;;;;;;;1.80;1.70;;;17.10;58.30;;;;;;5079260;28;20499;-81
2024/02/24 10:31:10;;;;;;;2.20;2.10;;;17.30;58.40;;;;;;5079504;28;20936;-81
2024/02/24 10:33:38;;;;;;;2.50;2.30;;;17.40;58.10;;;;;;5078926;28;20538;-81
2024/02/24 10:36:08;;;;;;;2.77;2.53;;;17.50;57.90;;;;;;5079610;28;20434;-81
2024/02/24 10:38:35;;;;;;;2.40;2.17;;;17.60;57.70;;;;;;5080730;28;20461;-81
2024/02/24 10:41:12;;;;;;;3.67;2.20;;;17.80;58.10;;;;;;5079332;28;20433;-81
2024/02/24 10:43:40;;;;;;;3.13;2.30;;;18.00;57.80;;;;;;5079618;28;20529;-81
2024/02/24 10:46:09;;;;;;;2.20;2.10;;;18.20;57.70;;;;;;5080131;28;20469;-81
2024/02/24 10:48:37;;;;;;;2.50;2.30;;;18.40;57.60;;;;;;5079368;28;20469;-81
2024/02/24 10:51:05;;;;;;;3.10;2.50;;;18.50;57.70;;;;;;5080669;28;20449;-82
2024/02/24 10:53:34;;;;;;;2.47;2.37;;;18.90;58.00;;;;;;5079256;28;20500;-82
2024/02/24 10:56:02;;;;;;;3.10;2.43;;;19.20;57.80;;;;;;5080184;28;20472;-80
2024/02/24 10:58:31;;;;;;;2.50;2.30;;;19.30;57.50;;;;;;5079299;28;20438;-81
2024/02/24 11:00:59;;;;;;;2.60;2.20;;;19.40;57.20;;;;;;5078581;28;20438;-82
2024/02/24 11:03:30;;;;;;;2.60;2.17;;;19.60;57.10;;;;;;5078794;28;20461;-82
2024/02/24 11:05:58;;;;;;;4.77;2.00;;;19.60;56.80;;;;;;5078808;28;20442;-82
2024/02/24 11:08:40;;;;;;;2.83;2.40;;;19.60;56.70;;;;;;5078483;28;20569;-82
2024/02/24 11:11:09;;;;;;;2.63;2.43;;;19.50;56.90;;;;;;5075340;28;20446;-81
2024/02/24 11:13:38;;;;;;;2.83;2.40;;;19.50;57.10;;;;;;5067397;28;20463;-80
2024/02/24 11:16:07;;;;;;;2.57;2.10;;;19.50;57.10;;;;;;5066715;28;20461;-80
2024/02/24 11:18:55;;;;;;;2.30;2.20;;;19.50;57.20;;;;;;5067737;28;20440;-80
2024/02/24 11:21:57;;;;;;;2.70;2.60;;;19.40;57.30;;;;;;5069253;28;20450;-80
2024/02/24 11:24:31;;;;;;;3.30;3.00;;;19.30;57.30;;;;;;5066396;28;20441;-80
2024/02/24 11:26:59;;;;;;;2.80;2.60;;;19.20;57.40;;;;;;5069012;28;20460;-82
2024/02/24 11:29:41;;;;;;;2.37;2.23;;;19.10;57.40;;;;;;5075541;28;21057;-81
2024/02/24 11:32:24;;;;;;;3.00;2.80;;;19.10;57.60;;;;;;5075578;28;20460;-81
2024/02/24 11:34:53;;;;;;;3.17;2.47;;;19.10;57.90;;;;;;5077122;28;20434;-80
2024/02/24 11:37:21;;;;;;;3.00;2.80;;;19.20;57.80;;;;;;5077373;28;20457;-81
2024/02/24 11:39:50;;;;;;;3.10;2.30;;;19.40;58.00;;;;;;5074546;28;20457;-79
2024/02/24 11:42:20;;;;;;;3.40;2.87;;;19.50;56.90;;;;;;5058943;28;20458;-80
2024/02/24 11:44:48;;;;;;;3.00;2.80;;;19.40;56.90;;;;;;5064791;28;20438;-80
2024/02/24 11:47:19;;;;;;;3.03;2.80;;;19.50;57.40;;;;;;5069409;28;20518;-80
2024/02/24 11:49:47;;;;;;;2.90;2.70;;;19.90;57.30;;;;;;5064257;28;20448;-81
2024/02/24 11:52:18;;;;;;;3.20;2.83;;;20.20;56.10;;;;;;5069267;28;20461;-81
2024/02/24 12:06:06;;;;;;;3.00;2.40;;;20.80;54.70;;;;;;5056448;28;20458;-79
2024/02/24 12:12:24;;;;;;;2.67;2.47;;;20.30;54.90;;;;;;5070082;28;20440;-80
2024/02/24 12:14:53;;;;;;;2.73;2.50;;;20.10;55.50;;;;;;5076109;28;20442;-80
2024/02/24 12:21:10;;;;;;;2.53;2.33;;;20.00;56.80;;;;;;5069653;28;20389;-80
2024/02/24 12:23:39;;;;;;;2.70;2.57;;;20.90;55.00;;;;;;5067900;28;20565;-79
2024/02/24 12:26:13;;;;;;;2.50;2.30;;;20.80;54.30;;;;;;5077464;28;20420;-78
2024/02/24 12:28:45;;;;;;;2.70;2.23;;;20.60;54.20;;;;;;5081673;28;20469;-79
2024/02/24 12:31:13;;;;;;;2.37;2.27;;;20.40;54.40;;;;;;5085602;28;20501;-80
2024/02/24 12:33:42;;;;;;;3.40;3.10;;;20.30;54.80;;;;;;5084161;28;20453;-79
2024/02/24 12:36:12;;;;;;;2.60;2.40;;;20.20;55.20;;;;;;5076996;28;20453;-79
2024/02/24 12:38:40;;;;;;;2.90;2.70;;;20.20;55.20;;;;;;5076871;28;20487;-79
2024/02/24 12:41:09;;;;;;;2.30;2.20;;;20.20;55.50;;;;;;5077353;28;20438;-79
2024/02/24 12:43:37;;;;;;;2.50;2.10;;;20.20;55.00;;;;;;5075944;28;20465;-80
2024/02/24 12:46:07;;;;;;;5.70;2.50;;;20.20;55.80;;;;;;5074182;28;20495;-80
2024/02/24 12:48:35;;;;;;;2.13;2.03;;;20.20;56.10;;;;;;5072561;28;20560;-80
2024/02/24 12:51:04;;;;;;;2.23;2.13;;;20.60;55.30;;;;;;5073961;28;20533;-81
2024/02/24 12:53:32;;;;;;;2.60;2.50;;;20.90;49.50;;;;;;5073939;28;20473;-80
2024/02/24 12:56:00;;;;;;;2.80;2.60;;;19.10;46.00;;;;;;5073775;28;20438;-83
2024/02/24 12:58:29;;;;;;;2.90;2.70;;;18.40;45.80;;;;;;5075093;28;20532;-82
2024/02/24 13:00:57;;;;;;;3.47;2.60;;;17.30;47.00;;;;;;5074544;28;20482;-82
2024/02/24 13:03:27;;;;;;;2.60;2.50;;;15.90;47.80;;;;;;5077622;28;20480;-82
2024/02/24 13:05:55;;;;;;;3.23;2.93;;;15.60;47.30;;;;;;5076010;28;20469;-82
2024/02/24 13:08:23;;;;;;;2.83;2.63;;;13.80;49.90;;;;;;5077117;28;20560;-82
2024/02/24 13:10:51;;;;;;;2.80;2.70;;;13.40;51.20;;;;;;5077079;28;20536;-82